Latest Coastal Weather Observations for Adelaide Airport

IDS60701

Issued at 2:41 pm CST Thursday 27 April 2017 (issued every 10 minutes, with the page automatically refreshed every 10 minutes)

About coastal observations | Map of coastal stations | Coastal observations for SA | Marine services | Other Formats
Station Details ID: 023034 Name: ADELAIDE AIRPORT Lat: -34.95 Lon: 138.52 Height: 2.0 m
Data from the previous 72 hours. | See also: Recent months at Adelaide Airport
Date/Time
CST
Temp
°C
Wind Pressure Rain since
9am
mm
Weather Cloud Vis
km
Sea
Height
m
Swell
Dir  Spd
kts
Gust
kts
hPa Trend Height
m
Period
s
Dir
27/02:30pm 16.4 SW 11 15 1026.8 - 0.2 - Mostly clear 10 - - - -
27/02:00pm 17.0 WSW 13 17 1026.6 - 0.2 - Partly cloudy 10 - - - -
27/01:30pm 16.6 SW 10 15 1026.6 - 0.2 - Mostly clear 10 - - - -
27/01:00pm 16.1 SW 9 14 1027.0 - 0.2 - Mostly clear 10 - - - -
27/12:30pm 16.3 SW 10 13 1027.4 - 0.2 - Mostly clear 10 - - - -
27/12:00pm 15.6 SW 12 14 1028.1 R 0.2 Distant precip. Mostly cloudy 30 - - - -
27/11:30am 15.3 SW 10 15 1028.4 - 0.2 - Partly cloudy 10 - - - -
27/11:00am 15.0 E 5 6 1028.5 - 0.2 - Partly cloudy 10 - - - -
27/10:30am 14.4 SE 6 10 1028.7 - 0.2 - Partly cloudy 10 - - - -
27/10:00am 14.5 NNE 4 5 1028.8 - 0.2 - Partly cloudy 10 - - - -
27/09:30am 13.4 NE 5 6 1028.9 - 0.0 - Partly cloudy 10 - - - -
27/09:00am 12.9 ENE 6 7 1028.9 R 0.2 Distant precip. Mostly cloudy 30 - - - -
27/08:30am 12.5 NE 6 7 1028.6 - 0.2 - Mostly clear 10 - - - -
27/08:00am 11.6 NE 6 7 1028.1 - 0.2 - Partly cloudy 10 - - - -
27/07:30am 11.2 NNE 6 8 1027.7 - 0.2 - Mostly clear 10 - - - -
27/07:00am 11.5 NE 6 7 1027.5 - 0.0 Showers Mostly clear 10 - - - -
27/06:30am 11.1 NE 6 7 1027.1 - 0.0 - Mostly clear 10 - - - -
27/06:00am 11.2 E 5 6 1026.9 R 0.0 Fine Mostly cloudy 30 - - - -
27/05:30am 11.8 SSW 5 8 1026.7 - 0.0 - Mostly clear 10 - - - -
27/05:00am 11.3 CALM 0 0 1026.5 - 0.0 - Mostly clear 10 - - - -
27/04:30am 11.1 ESE 4 5 1026.2 - 0.0 - Mostly clear 10 - - - -
27/04:00am 11.0 SSE 5 6 1026.0 - 0.0 - Mostly clear 10 - - - -
27/03:30am 10.9 SSE 6 7 1025.9 - 0.0 - Mostly clear 10 - - - -
27/03:00am 10.4 SSE 5 6 1026.0 R 0.0 Fine Partly cloudy 30 - - - -
27/02:30am 11.2 SSE 5 6 1025.9 - 0.0 - Mostly clear 10 - - - -
27/02:00am 11.2 SE 6 8 1026.2 - 0.0 - Mostly clear 10 - - - -
27/01:30am 10.2 SSE 4 5 1026.3 - 0.0 - Mostly clear 10 - - - -
27/01:00am 10.1 SSE 4 6 1026.1 - 0.0 - Mostly clear 10 - - - -
27/12:30am 10.3 SE 5 7 1026.0 - 0.0 - Mostly clear 10 - - - -
27/12:00am 10.7 SE 5 7 1025.9 R 0.0 Fine Partly cloudy 30 - - - -
 
Date/Time
CST
Temp
°C
Wind Pressure Rain since
9am
mm
Weather Cloud Vis
km
Sea
Height
m
Swell
Dir  Spd
kts
Gust
kts
hPa Trend Height
m
Period
s
Dir
26/11:30pm 11.9 SE 6 7 1025.9 - 0.0 - Cloudy 10 - - - -
26/11:00pm 13.1 SSE 7 10 1025.9 - 0.0 - Mostly clear 10 - - - -
26/10:30pm 12.1 SE 6 7 1026.0 - 0.0 - Mostly clear 10 - - - -
26/10:00pm 12.1 SE 5 7 1025.9 - 0.0 - Mostly clear 10 - - - -
26/09:30pm 12.4 SSE 5 7 1025.8 - 0.0 - Mostly clear 10 - - - -
26/09:00pm 11.5 SSE 5 7 1025.6 R 0.0 Fine Mostly cloudy 30 - - - -
26/08:30pm 10.9 SSE 6 6 1025.4 - 0.0 - Mostly clear 10 - - - -
26/08:00pm 11.2 SSE 5 6 1025.3 - 0.0 - Mostly clear 10 - - - -
26/07:30pm 12.3 SSE 6 7 1025.1 - 0.0 - Mostly clear 10 - - - -
26/07:00pm 12.8 S 8 10 1024.7 - 0.0 - Mostly clear 10 - - - -
26/06:30pm 13.2 S 7 11 1024.4 - 0.0 - Mostly clear 10 - - - -
26/06:00pm 13.2 S 11 15 1024.1 R 0.0 Fine Mostly cloudy 30 - - - -
26/05:30pm 13.9 S 9 15 1023.5 - 0.0 - Mostly clear 10 - - - -
26/05:00pm 13.9 S 9 13 1023.4 - 0.0 - Partly cloudy 10 - - - -
26/04:30pm 14.0 S 12 16 1023.5 - 0.0 - Partly cloudy 10 - - - -
26/04:00pm 15.0 S 11 16 1023.3 - 0.0 - Partly cloudy 10 - - - -
26/03:30pm 14.9 SSE 9 15 1023.0 - 0.0 - Mostly clear 10 - - - -
26/03:00pm 15.9 SSE 12 18 1022.6 R 0.0 Distant precip. Mostly cloudy 30 - - - -
26/02:30pm 15.7 S 16 21 1022.6 - 0.0 - Partly cloudy 10 - - - -
26/02:00pm 15.1 SSW 15 20 1022.5 - 0.0 - Partly cloudy 10 - - - -
26/01:36pm 15.7 SSW 15 26 1022.4 - 0.0 - Partly cloudy 10 - - - -
26/01:30pm 15.8 SSW 13 17 1022.2 - 0.0 - Partly cloudy 10 - - - -
26/01:00pm 14.7 SSW 19 28 1022.0 - 0.0 Showers Partly cloudy 10 - - - -
26/12:54pm 15.7 SSW 17 27 1021.9 - 0.0 - Partly cloudy 10 - - - -
26/12:30pm 16.1 SSW 17 23 1021.9 - 0.0 - Partly cloudy 10 - - - -
26/12:00pm 15.7 SSW 16 21 1022.2 R 0.0 Distant precip. Partly cloudy 30 - - - -
26/11:35am 15.7 S 16 26 1022.2 - 0.0 - Partly cloudy 10 - - - -
26/11:30am 15.5 S 15 20 1022.2 - 0.0 - Partly cloudy 10 - - - -
26/11:14am 14.9 S 16 26 1022.2 - 0.0 - Partly cloudy 10 - - - -
26/11:00am 14.6 SSW 16 21 1021.8 - 0.0 - Partly cloudy 10 - - - -
26/10:32am 14.9 S 15 25 1021.7 - 0.0 - Partly cloudy 10 - - - -
26/10:30am 15.5 S 16 25 1021.7 - 0.0 - Partly cloudy 10 - - - -
26/10:20am 14.7 SSW 18 28 1021.6 - 0.0 - Partly cloudy 10 - - - -
26/10:00am 15.1 S 16 22 1021.3 - 0.0 - Partly cloudy 10 - - - -
26/09:30am 14.1 S 14 18 1021.2 - 0.0 - Mostly clear 10 - - - -
26/09:00am 14.1 S 13 19 1020.9 R 4.4 Fine Mostly cloudy 30 - - - -
26/08:30am 13.9 S 13 18 1020.3 - 4.4 - Partly cloudy 10 - - - -
26/08:00am 13.2 S 14 20 1019.7 - 4.4 - Partly cloudy 10 - - - -
26/07:30am 12.3 S 14 21 1019.2 - 4.4 - Partly cloudy 10 - - - -
26/07:00am 12.1 S 15 22 1018.6 - 4.4 - Partly cloudy 10 - - - -
26/06:32am 12.1 S 15 25 1018.1 - 4.4 - Partly cloudy 10 - - - -
26/06:30am 12.2 S 16 25 1018.2 - 4.4 - Partly cloudy 10 - - - -
26/06:00am 11.9 S 19 28 1017.7 R 4.4 Fine Partly cloudy 30 - - - -
26/05:30am 12.7 SSW 17 27 1017.1 - 4.4 - Partly cloudy 10 - - - -
26/05:00am 12.5 SSW 20 30 1016.7 - 4.4 - Partly cloudy 10 - - - -
26/04:30am 12.2 SSW 23 33 1016.4 - 4.4 - Mostly clear 10 - - - -
26/04:00am 12.8 SSW 23 37 1015.8 - 4.4 - Partly cloudy 10 - - - -
26/03:30am 11.9 SSW 21 32 1015.5 - 4.4 - Partly cloudy 10 - - - -
26/03:00am 12.1 SSW 25 39 1015.2 R 4.4 Recent precip. Mostly cloudy 10 - - - -
26/02:30am 12.2 SW 24 35 1015.0 - 4.0 - Partly cloudy 8 - - - -
26/02:00am 12.8 SW 25 33 1014.7 - 3.0 Showers Partly cloudy 8 - - - -
26/01:30am 14.8 SW 24 33 1014.0 - 2.8 - Partly cloudy 10 - - - -
26/01:00am 14.8 SW 20 29 1013.8 - 2.8 - Partly cloudy 10 - - - -
26/12:36am 15.1 SW 23 33 1013.4 - 2.8 - Partly cloudy 10 - - - -
26/12:30am 15.3 SW 25 33 1013.4 - 2.8 - Partly cloudy 10 - - - -
26/12:00am 15.1 SW 24 34 1013.2 R 2.8 Recent precip. Mostly cloudy 25 - - - -
 
Date/Time
CST
Temp
°C
Wind Pressure Rain since
9am
mm
Weather Cloud Vis
km
Sea
Height
m
Swell
Dir  Spd
kts
Gust
kts
hPa Trend Height
m
Period
s
Dir
25/11:30pm 14.8 SW 26 34 1012.9 - 2.6 - Mostly clear 10 - - - -
25/11:10pm 15.2 SW 23 33 1012.6 - 2.6 - Mostly clear 10 - - - -
25/11:00pm 14.3 SW 25 33 1012.6 - 2.6 - Partly cloudy 10 - - - -
25/10:53pm 14.9 SW 23 33 1012.5 - 2.6 Showers Partly cloudy 7 - - - -
25/10:33pm 14.8 WSW 22 29 1012.6 - 0.4 Showers Partly cloudy 5 - - - -
25/10:30pm 16.4 W 22 29 1012.6 - 0.2 - Partly cloudy 8 - - - -
25/10:00pm 17.0 W 22 30 1012.5 - 0.2 - Partly cloudy 10 - - - -
25/09:30pm 16.9 W 21 28 1012.6 - 0.2 - Mostly clear 10 - - - -
25/09:00pm 16.8 W 17 22 1012.7 F 0.2 Fine Mostly cloudy 30 - - - -
25/08:30pm 16.7 W 18 24 1012.9 - 0.2 - Partly cloudy 10 - - - -
25/08:00pm 17.0 WSW 17 21 1013.1 - 0.2 - Mostly clear 10 - - - -
25/07:30pm 17.0 WSW 20 29 1013.2 - 0.2 - Partly cloudy 10 - - - -
25/07:00pm 17.0 W 21 28 1013.1 - 0.2 - Mostly clear 10 - - - -
25/06:30pm 16.9 W 14 18 1012.6 - 0.2 - Mostly clear 10 - - - -
25/06:00pm 16.6 W 12 19 1012.4 R 0.2 Recent precip. Mostly cloudy 20 - - - -
25/05:30pm 16.1 W 12 15 1012.3 - 0.2 - Mostly clear 10 - - - -
25/05:00pm 15.5 WSW 19 26 1012.5 - 0.2 Showers Mostly clear 7 - - - -
25/04:58pm 15.4 WSW 19 26 1012.5 - 0.2 Showers Mostly clear 5 - - - -
25/04:43pm 15.0 WSW 22 29 1012.5 - 0.0 Showers Mostly clear 3 - - - -
25/04:36pm 15.4 WSW 23 29 1012.4 - 0.0 Showers Mostly clear 5 - - - -
25/04:33pm 15.6 WSW 22 29 1012.4 - 0.0 Showers Mostly clear 7 - - - -
25/04:30pm 15.9 WSW 23 28 1012.4 - 0.0 - Mostly clear 10 - - - -
25/04:00pm 17.4 WSW 18 26 1012.1 - 0.0 - Mostly clear 10 - - - -
25/03:30pm 16.9 W 11 17 1012.0 - 0.0 - Partly cloudy 10 - - - -
25/03:29pm 17.2 W 11 17 1012.0 - 0.0 - Partly cloudy 10 - - - -
25/03:24pm 16.9 WSW 13 18 1011.9 - 0.0 - Partly cloudy 8 - - - -
25/03:12pm 16.7 WSW 14 26 1012.0 - 0.0 Showers Mostly cloudy 6 - - - -
25/03:00pm 18.3 W 10 15 1011.8 R 0.0 Showers Mostly cloudy 15 - - - -
25/02:30pm 20.2 W 8 12 1011.7 - 0.0 - Mostly clear 10 - - - -
25/02:00pm 20.1 WSW 9 10 1011.9 - 0.0 - Mostly clear 10 - - - -
25/01:30pm 20.0 WSW 11 16 1012.4 - 0.0 - Mostly clear 10 - - - -
25/01:00pm 20.0 WSW 13 16 1012.8 - 0.0 - Mostly clear 10 - - - -
25/12:30pm 19.9 WSW 15 18 1013.1 - 0.0 - Partly cloudy 10 - - - -
25/12:00pm 19.2 WSW 15 18 1013.3 R 0.0 Fine Mostly cloudy 30 - - - -
25/11:30am 19.1 WSW 15 18 1013.6 - 0.0 - Partly cloudy 10 - - - -
25/11:00am 18.5 WSW 13 17 1013.9 - 0.0 - Partly cloudy 10 - - - -
25/10:30am 19.3 WSW 15 20 1014.1 - 0.0 - Partly cloudy 10 - - - -
25/10:00am 19.6 SW 15 18 1014.2 - 0.0 - Partly cloudy 10 - - - -
25/09:30am 18.2 SW 12 16 1014.1 - 0.0 - Partly cloudy 10 - - - -
25/09:00am 18.7 SW 10 14 1014.1 R 0.6 Fine Partly cloudy 30 - - - -
25/08:30am 18.3 SW 10 14 1014.1 - 0.6 - Mostly clear 10 - - - -
25/08:00am 17.9 SW 10 13 1013.9 - 0.6 - Mostly clear 10 - - - -
25/07:30am 17.4 SW 13 16 1013.5 - 0.6 - Mostly clear 10 - - - -
25/07:00am 17.5 SW 14 19 1013.0 - 0.6 - Mostly clear 10 - - - -
25/06:30am 17.6 SW 15 20 1012.6 - 0.6 - Mostly clear 10 - - - -
25/06:00am 17.3 WSW 14 20 1012.3 F 0.6 Recent precip. Mostly cloudy 25 - - - -
25/05:30am 17.6 W 11 16 1012.3 - 0.6 - Mostly cloudy 10 - - - -
25/05:00am 17.4 W 13 16 1012.2 - 0.4 - Partly cloudy 10 - - - -
25/04:30am 17.1 W 14 17 1012.1 - 0.4 - Partly cloudy 10 - - - -
25/04:00am 17.1 W 12 16 1012.0 - 0.4 - Partly cloudy 10 - - - -
25/03:30am 17.0 W 13 17 1012.2 - 0.4 - Partly cloudy 10 - - - -
25/03:00am 16.7 W 13 16 1012.1 R 0.4 Fine Partly cloudy 30 - - - -
25/02:30am 17.0 W 15 19 1012.3 - 0.4 - Partly cloudy 10 - - - -
25/02:00am 17.5 WSW 15 19 1012.4 - 0.4 - Partly cloudy 10 - - - -
25/01:30am 17.6 WSW 13 17 1012.4 - 0.4 - Partly cloudy 10 - - - -
25/01:00am 17.5 WSW 15 19 1012.3 - 0.4 - Mostly cloudy 10 - - - -
25/12:30am 17.8 WSW 16 21 1012.4 - 0.4 - Partly cloudy 10 - - - -
25/12:00am 18.3 WSW 15 19 1012.5 F 0.4 Fine Mostly cloudy 30 - - - -
 
Date/Time
CST
Temp
°C
Wind Pressure Rain since
9am
mm
Weather Cloud Vis
km
Sea
Height
m
Swell
Dir  Spd
kts
Gust
kts
hPa Trend Height
m
Period
s
Dir
24/11:30pm 18.5 WSW 14 17 1012.4 - 0.4 - Mostly clear 10 - - - -
24/11:00pm 18.3 W 11 15 1012.7 - 0.4 Showers Mostly clear 10 - - - -
24/10:30pm 18.3 W 11 14 1012.9 - 0.4 - Mostly clear 10 - - - -
24/10:00pm 18.5 WNW 11 16 1013.0 - 0.4 - Mostly clear 10 - - - -
24/09:30pm 18.4 N 6 8 1013.1 - 0.4 - Mostly clear 10 - - - -
24/09:00pm 18.1 N 6 8 1013.2 F 0.4 Fine Mostly cloudy 30 - - - -
24/08:33pm 18.2 N 5 6 1013.3 - 0.4 - Mostly clear 10 - - - -
24/08:30pm 18.2 N 5 6 1013.4 - 0.4 - Mostly clear 10 - - - -
24/08:00pm 18.0 N 7 9 1013.6 - 0.4 - Mostly clear 10 - - - -
24/07:30pm 18.2 N 6 7 1013.7 - 0.4 - Mostly clear 10 - - - -
24/07:00pm 18.1 NNW 8 10 1013.7 - 0.4 Rain Partly cloudy 10 - - - -
24/06:30pm 18.1 N 8 11 1013.3 - 0.4 - Mostly clear 10 - - - -
24/06:00pm 18.2 NNW 11 15 1013.2 F 0.4 Recent precip. Mostly cloudy 20 - - - -
24/05:30pm 18.4 WNW 14 18 1013.2 - 0.2 - Mostly clear 10 - - - -
24/05:00pm 19.3 NW 10 14 1013.1 - 0.2 - Mostly clear 10 - - - -
24/04:30pm 18.8 NW 12 15 1013.2 - 0.2 - Mostly clear 10 - - - -
24/04:00pm 19.7 NW 9 14 1013.3 - 0.0 - Mostly clear 10 - - - -
24/03:45pm 19.4 NNW 7 13 1013.4 - 0.0 - Partly cloudy 10 - - - -
24/03:30pm 19.5 NNW 10 14 1013.6 - 0.0 - Partly cloudy 10 - - - -
24/03:00pm 20.0 NNW 10 13 1013.7 F 0.0 Fine Mostly cloudy 15 - - - -

Other Formats:

Comma delimited format used in spreadsheet applications
http://www.bom.gov.au/fwo/IDS60701/IDS60701.94672.axf

JavaScript Object Notation format (JSON) in row-major order
http://www.bom.gov.au/fwo/IDS60701/IDS60701.94672.json